LNG Imo — ZCDT6 — position and weather

sailwx.info

Track history (hours):
 
Tides and Currents Weather Stations Pressure Air Temp Water Temp Dewpoint Dewpoint Depression Visibility Wind Speed Wind Dir Waves Ship Positions

LNG Imo

Last reported at 2014-Sep-05 18:21 UTC. Time now 2014-Oct-30 14:38 UTC.
Position N 36°05' W 005°20'.
Warning: this ship's position is 54 days out of date.

; draft 9.7 m.

Type: Ship (hazmat cat A). MMSI: 310565000.

Date/timePositionNaut miles runAvg speedWind from/ knotsBaromVisibWave heightAir tempDewpointWater temp
2014-Sep-05 18:21N 36°05' W 005°20'2 2.2
2014-Sep-05 17:33N 36°05' W 005°18'24517.2
2014-Sep-05 03:19N 36°44' W 000°18'1417.4
2014-Sep-05 02:30N 36°47' W 000°00'1815.2
2014-Sep-05 01:19N 36°50' E 000°22'1417.3
2014-Sep-05 00:30N 36°53' E 000°39'1617.3
2014-Sep-04 23:33N 36°56' E 000°59'2017.8
2014-Sep-04 22:27N 37°00' E 001°23'7618.1
2014-Sep-04 18:14N 37°15' E 002°57'1718.1
2014-Sep-04 17:18N 37°18' E 003°18'1417.5
2014-Sep-04 16:31N 37°21' E 003°35'1818.1
2014-Sep-04 15:31N 37°24' E 003°57'14019.6
2014-Sep-04 08:22N 37°34' E 006°53'3819.8
2014-Sep-04 06:26N 37°37' E 007°41'3618.9
2014-Sep-04 04:33N 37°39' E 008°26'2119.0
2014-Sep-04 03:26N 37°39' E 008°53'1718.8
2014-Sep-04 02:31N 37°39' E 009°14'3618.3
2014-Sep-04 00:33N 37°39' E 009°60'3718.3
2014-Sep-03 22:33N 37°33' E 010°46'11318.9
2014-Sep-03 16:33N 36°49' E 012°57'1818.3
2014-Sep-03 15:33N 36°44' E 013°19'1717.4
2014-Sep-03 14:33N 36°39' E 013°40'1817.5
2014-Sep-03 13:33N 36°34' E 014°00'1717.5
2014-Sep-03 12:33N 36°28' E 014°21'1717.0
2014-Sep-03 11:33N 36°24' E 014°41'41813.3
2014-Sep-02 04:13N 36°24' E 023°20'1217.4
2014-Sep-02 03:33N 36°29' E 023°33'1917.5
2014-Sep-02 02:29N 36°39' E 023°53'1516.2
2014-Sep-02 01:33N 36°51' E 024°04'1817.6
2014-Sep-02 00:34N 37°08' E 024°08'2517.1
2014-Sep-01 23:05N 37°31' E 024°22'917.5
2014-Sep-01 22:33N 37°39' E 024°29'1817.6
2014-Sep-01 21:33N 37°55' E 024°36'4017.4
2014-Sep-01 19:15N 38°34' E 024°51'4717.3
2014-Sep-01 16:33N 39°18' E 025°10'1817.5
2014-Sep-01 15:33N 39°31' E 025°25'1917.6
2014-Sep-01 14:27N 39°45' E 025°42'1617.7
2014-Sep-01 13:33N 39°58' E 025°55'  
2014-Aug-30 02:09N 39°56' E 025°58'7 8.8
2014-Aug-30 01:21N 39°51' E 025°51'7 8.9
2014-Aug-30 00:31N 39°46' E 025°45'12116.7
2014-Aug-29 17:17N 37°57' E 024°38'1215.7
2014-Aug-29 16:32N 37°46' E 024°33'1616.1
2014-Aug-29 15:33N 37°32' E 024°23'1917.7
2014-Aug-29 14:30N 37°16' E 024°10'1717.4
2014-Aug-29 13:33N 37°00' E 024°06'1717.1
2014-Aug-29 12:33N 36°44' E 023°58'43416.7
2014-Aug-28 10:34N 36°22' E 014°58'1717.4
2014-Aug-28 09:34N 36°22' E 014°37'1717.4
2014-Aug-28 08:34N 36°25' E 014°15'1817.5
2014-Aug-28 07:34N 36°26' E 013°54'1717.3
2014-Aug-28 06:34N 36°26' E 013°32'1818.0
2014-Aug-28 05:34N 36°33' E 013°11'1817.7
2014-Aug-28 04:34N 36°39' E 012°50'1717.4
2014-Aug-28 03:34N 36°45' E 012°30'1817.7
2014-Aug-28 02:34N 36°52' E 012°10'1817.5
2014-Aug-28 01:33N 37°00' E 011°50'2617.9
2014-Aug-28 00:05N 37°15' E 011°23'1717.5
2014-Aug-27 23:07N 37°24' E 011°05'1017.4
2014-Aug-27 22:33N 37°27' E 010°53'1717.4
2014-Aug-27 21:33N 37°31' E 010°32'1817.7
2014-Aug-27 20:34N 37°34' E 010°10'1817.9
2014-Aug-27 19:34N 37°32' E 009°48'1817.9
2014-Aug-27 18:34N 37°27' E 009°26'1817.9
2014-Aug-27 17:34N 37°23' E 009°04'1817.9
2014-Aug-27 16:33N 37°18' E 008°42'1817.7
2014-Aug-27 15:33N 37°16' E 008°20'1817.9
2014-Aug-27 14:33N 37°16' E 007°58'1717.2
2014-Aug-27 13:33N 37°16' E 007°36'1717.4
2014-Aug-27 12:33N 37°16' E 007°14'1817.9
2014-Aug-27 11:33N 37°16' E 006°51'2118.3
2014-Aug-27 10:25N 37°15' E 006°25'7417.8
2014-Aug-27 06:15N 37°16' E 004°52'1318.3
2014-Aug-27 05:33N 37°15' E 004°36'4518.3
2014-Aug-27 03:07N 37°11' E 003°40'3318.7
2014-Aug-27 01:22N 37°07' E 002°60'1519.1
2014-Aug-27 00:33N 37°04' E 002°40'1918.6
2014-Aug-26 23:33N 37°01' E 002°17'1818.2
2014-Aug-26 22:33N 36°57' E 001°55'1818.3
2014-Aug-26 21:34N 36°54' E 001°33'1818.3
2014-Aug-26 20:33N 36°51' E 001°10'1918.7
2014-Aug-26 19:33N 36°47' E 000°47'1918.8
2014-Aug-26 18:33N 36°42' E 000°24'  
Track history (hours):
 
Tides and Currents Weather Stations Pressure Air Temp Water Temp Dewpoint Dewpoint Depression Visibility Wind Speed Wind Dir Waves Ship Positions

LNG Imo

Last reported at 2014-Sep-05 18:21 UTC. Time now 2014-Oct-30 14:38 UTC.
Position N 36°05' W 005°20'.
Warning: this ship's position is 54 days out of date.

; draft 9.7 m.

Type: Ship (hazmat cat A). MMSI: 310565000.

Date/timePositionNaut miles runAvg speedWind from/ knotsBaromVisibWave heightAir tempDewpointWater temp
2014-Sep-05 18:21N 36°05' W 005°20'2 2.2
2014-Sep-05 17:33N 36°05' W 005°18'24517.2
2014-Sep-05 03:19N 36°44' W 000°18'1417.4
2014-Sep-05 02:30N 36°47' W 000°00'1815.2
2014-Sep-05 01:19N 36°50' E 000°22'1417.3
2014-Sep-05 00:30N 36°53' E 000°39'1617.3
2014-Sep-04 23:33N 36°56' E 000°59'2017.8
2014-Sep-04 22:27N 37°00' E 001°23'7618.1
2014-Sep-04 18:14N 37°15' E 002°57'1718.1
2014-Sep-04 17:18N 37°18' E 003°18'1417.5
2014-Sep-04 16:31N 37°21' E 003°35'1818.1
2014-Sep-04 15:31N 37°24' E 003°57'14019.6
2014-Sep-04 08:22N 37°34' E 006°53'3819.8
2014-Sep-04 06:26N 37°37' E 007°41'3618.9
2014-Sep-04 04:33N 37°39' E 008°26'2119.0
2014-Sep-04 03:26N 37°39' E 008°53'1718.8
2014-Sep-04 02:31N 37°39' E 009°14'3618.3
2014-Sep-04 00:33N 37°39' E 009°60'3718.3
2014-Sep-03 22:33N 37°33' E 010°46'11318.9
2014-Sep-03 16:33N 36°49' E 012°57'1818.3
2014-Sep-03 15:33N 36°44' E 013°19'1717.4
2014-Sep-03 14:33N 36°39' E 013°40'1817.5
2014-Sep-03 13:33N 36°34' E 014°00'1717.5
2014-Sep-03 12:33N 36°28' E 014°21'1717.0
2014-Sep-03 11:33N 36°24' E 014°41'41813.3
2014-Sep-02 04:13N 36°24' E 023°20'1217.4
2014-Sep-02 03:33N 36°29' E 023°33'1917.5
2014-Sep-02 02:29N 36°39' E 023°53'1516.2
2014-Sep-02 01:33N 36°51' E 024°04'1817.6
2014-Sep-02 00:34N 37°08' E 024°08'2517.1
2014-Sep-01 23:05N 37°31' E 024°22'917.5
2014-Sep-01 22:33N 37°39' E 024°29'1817.6
2014-Sep-01 21:33N 37°55' E 024°36'4017.4
2014-Sep-01 19:15N 38°34' E 024°51'4717.3
2014-Sep-01 16:33N 39°18' E 025°10'1817.5
2014-Sep-01 15:33N 39°31' E 025°25'1917.6
2014-Sep-01 14:27N 39°45' E 025°42'1617.7
2014-Sep-01 13:33N 39°58' E 025°55'  
2014-Aug-30 02:09N 39°56' E 025°58'7 8.8
2014-Aug-30 01:21N 39°51' E 025°51'7 8.9
2014-Aug-30 00:31N 39°46' E 025°45'12116.7
2014-Aug-29 17:17N 37°57' E 024°38'1215.7
2014-Aug-29 16:32N 37°46' E 024°33'1616.1
2014-Aug-29 15:33N 37°32' E 024°23'1917.7
2014-Aug-29 14:30N 37°16' E 024°10'1717.4
2014-Aug-29 13:33N 37°00' E 024°06'1717.1
2014-Aug-29 12:33N 36°44' E 023°58'43416.7
2014-Aug-28 10:34N 36°22' E 014°58'1717.4
2014-Aug-28 09:34N 36°22' E 014°37'1717.4
2014-Aug-28 08:34N 36°25' E 014°15'1817.5
2014-Aug-28 07:34N 36°26' E 013°54'1717.3
2014-Aug-28 06:34N 36°26' E 013°32'1818.0
2014-Aug-28 05:34N 36°33' E 013°11'1817.7
2014-Aug-28 04:34N 36°39' E 012°50'1717.4
2014-Aug-28 03:34N 36°45' E 012°30'1817.7
2014-Aug-28 02:34N 36°52' E 012°10'1817.5
2014-Aug-28 01:33N 37°00' E 011°50'2617.9
2014-Aug-28 00:05N 37°15' E 011°23'1717.5
2014-Aug-27 23:07N 37°24' E 011°05'1017.4
2014-Aug-27 22:33N 37°27' E 010°53'1717.4
2014-Aug-27 21:33N 37°31' E 010°32'1817.7
2014-Aug-27 20:34N 37°34' E 010°10'1817.9
2014-Aug-27 19:34N 37°32' E 009°48'1817.9
2014-Aug-27 18:34N 37°27' E 009°26'1817.9
2014-Aug-27 17:34N 37°23' E 009°04'1817.9
2014-Aug-27 16:33N 37°18' E 008°42'1817.7
2014-Aug-27 15:33N 37°16' E 008°20'1817.9
2014-Aug-27 14:33N 37°16' E 007°58'1717.2
2014-Aug-27 13:33N 37°16' E 007°36'1717.4
2014-Aug-27 12:33N 37°16' E 007°14'1817.9
2014-Aug-27 11:33N 37°16' E 006°51'2118.3
2014-Aug-27 10:25N 37°15' E 006°25'7417.8
2014-Aug-27 06:15N 37°16' E 004°52'1318.3
2014-Aug-27 05:33N 37°15' E 004°36'4518.3
2014-Aug-27 03:07N 37°11' E 003°40'3318.7
2014-Aug-27 01:22N 37°07' E 002°60'1519.1
2014-Aug-27 00:33N 37°04' E 002°40'1918.6
2014-Aug-26 23:33N 37°01' E 002°17'1818.2
2014-Aug-26 22:33N 36°57' E 001°55'1818.3
2014-Aug-26 21:34N 36°54' E 001°33'1818.3
2014-Aug-26 20:33N 36°51' E 001°10'1918.7
2014-Aug-26 19:33N 36°47' E 000°47'1918.8
2014-Aug-26 18:33N 36°42' E 000°24'  

Dump ship's entire track history